createdAt,value
2023-01-15T10:55:45.336Z,8.50
2023-01-15T11:00:55.274Z,8.30
2023-01-15T11:06:00.674Z,8.30
2023-01-15T11:11:20.930Z,8.40
2023-01-15T11:16:43.332Z,8.60
2023-01-15T11:21:49.218Z,8.80
2023-01-15T11:26:57.364Z,9.00
2023-01-15T11:32:02.498Z,8.90
2023-01-15T11:37:08.621Z,9.00
2023-01-15T11:42:31.927Z,9.00
2023-01-15T11:47:49.531Z,8.90
2023-01-15T11:52:57.602Z,8.80
2023-01-15T11:58:05.497Z,9.20
2023-01-15T12:03:17.142Z,9.30
2023-01-15T12:08:31.457Z,9.20
2023-01-15T12:13:45.299Z,9.30
2023-01-15T12:18:59.531Z,9.10
2023-01-15T12:24:17.288Z,8.90
2023-01-15T12:29:27.402Z,8.70
2023-01-15T12:34:37.926Z,8.60
2023-01-15T12:39:48.162Z,8.60
2023-01-15T12:45:10.459Z,8.60
2023-01-15T12:50:31.891Z,8.80
2023-01-15T12:55:40.728Z,8.80
2023-01-15T13:00:48.717Z,8.90
2023-01-15T13:05:56.467Z,8.80
2023-01-15T13:11:01.665Z,8.80
2023-01-15T13:16:19.021Z,8.90
2023-01-15T13:21:25.077Z,9.00
2023-01-15T17:28:46.574Z,7.60
2023-01-15T17:33:52.379Z,7.70
2023-01-15T17:38:57.736Z,7.80
2023-01-15T17:44:06.858Z,8.00
2023-01-15T17:49:12.143Z,8.00
2023-01-15T17:54:37.640Z,8.10
2023-01-15T17:59:57.792Z,8.10
2023-01-15T18:05:15.463Z,8.20
2023-01-15T18:10:21.267Z,8.20
2023-01-15T18:15:29.022Z,8.20
2023-01-15T18:20:34.368Z,8.20
2023-01-15T18:25:45.930Z,8.10
2023-01-15T18:30:53.658Z,8.10
2023-01-15T18:36:06.365Z,8.00
2023-01-15T18:41:12.801Z,8.10
2023-01-15T18:46:33.080Z,8.00
2023-01-15T18:51:38.211Z,8.10
2023-01-15T18:56:47.932Z,8.10
2023-01-15T19:01:56.467Z,8.10
2023-01-15T19:07:03.651Z,8.10
2023-01-15T19:12:09.683Z,8.10
2023-01-15T19:17:31.655Z,8.10
2023-01-15T19:22:49.286Z,8.00
2023-01-15T19:27:55.343Z,7.90
2023-01-15T19:33:03.044Z,7.70
2023-01-15T19:38:10.629Z,7.60
2023-01-15T19:43:28.268Z,7.40
2023-01-15T19:48:48.763Z,7.40
2023-01-15T19:53:53.833Z,7.40
2023-01-15T19:58:59.008Z,7.40
2023-01-15T20:04:07.484Z,7.40
2023-01-15T20:09:12.649Z,7.40
2023-01-15T20:14:17.941Z,7.40
2023-01-15T20:19:25.684Z,7.40
2023-01-15T20:24:30.740Z,7.40
2023-01-15T20:29:35.856Z,7.30
2023-01-15T20:34:45.101Z,7.30
2023-01-15T20:39:50.233Z,7.30
2023-01-15T20:44:58.095Z,7.20
2023-01-15T20:50:06.066Z,7.30
2023-01-15T20:55:11.849Z,7.20
2023-01-15T21:00:19.335Z,7.30
2023-01-15T21:05:27.638Z,7.30
2023-01-15T21:10:32.834Z,7.30
2023-01-15T21:15:37.914Z,7.40
2023-01-15T21:20:46.032Z,7.50
2023-01-15T21:25:51.497Z,7.60
2023-01-15T21:30:56.889Z,7.60
2023-01-15T21:36:08.348Z,7.70
2023-01-15T21:41:15.079Z,7.70
2023-01-15T21:46:20.567Z,7.70
2023-01-15T21:51:28.742Z,7.70
2023-01-15T21:56:33.896Z,7.60
2023-01-15T22:01:39.292Z,7.60
2023-01-15T22:06:47.289Z,7.60
2023-01-15T22:11:52.726Z,7.50
2023-01-15T22:16:58.568Z,7.40
2023-01-15T22:22:08.417Z,7.30
2023-01-15T22:27:17.051Z,7.10
2023-01-15T22:32:22.144Z,7.00
2023-01-15T22:37:29.880Z,6.90
2023-01-15T22:42:35.072Z,6.70
2023-01-15T22:47:40.241Z,7.00
2023-01-15T22:52:48.216Z,7.00
2023-01-15T22:57:53.317Z,7.00
2023-01-15T23:03:05.111Z,7.10
2023-01-15T23:08:12.839Z,7.10
2023-01-15T23:13:17.991Z,7.10
2023-01-15T23:18:23.075Z,7.10
2023-01-15T23:23:30.783Z,7.10
2023-01-15T23:28:35.954Z,7.20
2023-01-15T23:33:40.985Z,7.20
2023-01-15T23:38:49.359Z,7.20
2023-01-15T23:44:06.833Z,7.30
